Terminal Aerodrome Forecast
Issued by NWS

Home | Current Version | Previous Version | Text Only | Print | Product List | Glossary On
Versions: 1 2 3 4 5 6 7 8 9 10 11 12 13 14
061
FTUS46 KMTR 031120
TAFSNS
TAF
KSNS 031120Z 0312/0412 VRB03KT P6SM OVC007
     FM031600 12005KT P6SM BKN010
     FM031830 VRB03KT P6SM SCT015 BKN200
     FM032000 30012KT P6SM BKN200
     FM040400 28005KT P6SM OVC012=

USA.gov is the U.S. government's official web portal to all federal, state and local government web resources and services.